Time;durP1;ratioP1;P1;durP2;ratioP2;P2;SDS_P1;SDS_P2;PMS_P1;PMS_P2;Temp;Humidity;BMP_temperature;BMP_pressure;BME280_temperature;BME280_humidity;BME280_pressure;Samples;Min_cycle;Max_cycle;Signal;HPM_P1;HPM_P2
2023/10/12 00:01:58;;;;;;;12.27;3.40;;;16.40;99.90;;;;;;5072838;28;20029;-67
2023/10/12 00:04:43;;;;;;;8.55;3.17;;;16.40;99.90;;;;;;5072570;28;20047;-66
2023/10/12 00:07:15;;;;;;;8.93;2.58;;;16.30;99.90;;;;;;5072741;28;20078;-66
2023/10/12 00:09:48;;;;;;;6.15;2.50;;;16.20;99.90;;;;;;5072553;28;20074;-66
2023/10/12 00:12:23;;;;;;;9.68;4.10;;;16.20;99.90;;;;;;5072258;28;20032;-66
2023/10/12 00:14:49;;;;;;;8.73;3.05;;;16.20;99.90;;;;;;5072548;28;20075;-66
2023/10/12 00:17:17;;;;;;;9.32;3.13;;;16.20;99.90;;;;;;5072517;28;20100;-66
2023/10/12 00:19:43;;;;;;;10.45;3.20;;;16.20;99.90;;;;;;5072252;28;20365;-66
2023/10/12 00:22:15;;;;;;;9.25;3.30;;;16.20;99.90;;;;;;5072597;28;20035;-66
2023/10/12 00:24:41;;;;;;;7.50;2.92;;;16.10;99.90;;;;;;5072524;28;20025;-67
2023/10/12 00:27:14;;;;;;;8.77;2.85;;;16.10;99.90;;;;;;5071907;28;20101;-66
2023/10/12 00:29:41;;;;;;;5.07;2.25;;;16.10;99.90;;;;;;5072398;28;20422;-67
2023/10/12 00:32:07;;;;;;;7.00;2.10;;;16.10;99.90;;;;;;5072460;28;20028;-66
2023/10/12 00:34:46;;;;;;;5.95;1.92;;;16.00;99.90;;;;;;5072287;28;20473;-67
2023/10/12 00:37:12;;;;;;;4.45;1.67;;;15.90;99.90;;;;;;5072275;28;20054;-67
2023/10/12 00:39:56;;;;;;;3.88;1.35;;;15.80;99.90;;;;;;5071818;28;20031;-67
2023/10/12 00:42:32;;;;;;;7.07;2.25;;;15.70;99.90;;;;;;5072352;28;20032;-67
2023/10/12 00:45:05;;;;;;;8.35;1.25;;;15.60;99.90;;;;;;5072050;28;20032;-67
2023/10/12 00:47:44;;;;;;;3.83;1.65;;;15.50;99.90;;;;;;5072218;28;20040;-68
2023/10/12 00:50:11;;;;;;;5.65;1.88;;;15.30;99.90;;;;;;5072050;28;20040;-67
2023/10/12 00:52:55;;;;;;;5.47;2.28;;;15.30;99.90;;;;;;5072215;28;20055;-67
2023/10/12 00:55:23;;;;;;;5.90;2.45;;;15.20;99.90;;;;;;5072077;28;20033;-66
2023/10/12 00:57:51;;;;;;;4.20;1.58;;;15.20;99.90;;;;;;5070818;28;20047;-66
2023/10/12 01:00:18;;;;;;;4.72;1.67;;;15.20;99.90;;;;;;5072156;28;20458;-66
2023/10/12 01:03:07;;;;;;;6.60;2.35;;;15.20;99.90;;;;;;5071481;28;20021;-66
2023/10/12 01:05:35;;;;;;;5.55;2.13;;;15.10;99.90;;;;;;5071249;28;20048;-66
2023/10/12 01:08:02;;;;;;;5.70;2.60;;;15.10;99.90;;;;;;5071812;28;20112;-66
2023/10/12 01:10:32;;;;;;;5.20;1.70;;;15.10;99.90;;;;;;5072009;28;20103;-66
2023/10/12 01:13:00;;;;;;;4.25;1.75;;;15.10;99.90;;;;;;5071714;28;20077;-66
2023/10/12 01:15:29;;;;;;;4.95;1.38;;;15.10;99.90;;;;;;5071902;28;20047;-66
2023/10/12 01:17:56;;;;;;;6.85;1.85;;;15.10;99.90;;;;;;5071983;28;20025;-66
2023/10/12 01:20:26;;;;;;;2.83;1.15;;;15.00;99.90;;;;;;5071951;28;20032;-65
2023/10/12 01:22:57;;;;;;;6.00;1.40;;;15.00;99.90;;;;;;5075421;28;20028;-66
2023/10/12 01:25:28;;;;;;;5.15;1.92;;;14.90;99.90;;;;;;5075460;28;20089;-66
2023/10/12 01:27:54;;;;;;;4.17;1.97;;;14.90;99.90;;;;;;5075603;28;20102;-66
2023/10/12 01:30:23;;;;;;;6.70;1.75;;;14.80;99.90;;;;;;5075569;28;20292;-66
2023/10/12 01:32:54;;;;;;;4.35;2.03;;;14.80;99.90;;;;;;5076444;28;20028;-66
2023/10/12 01:35:27;;;;;;;5.88;2.00;;;14.80;99.90;;;;;;5075365;28;20031;-66
2023/10/12 01:37:55;;;;;;;5.97;1.58;;;14.70;99.90;;;;;;5073787;28;20396;-66
2023/10/12 01:40:24;;;;;;;5.95;1.73;;;14.70;99.90;;;;;;5075498;28;20024;-66
2023/10/12 01:42:50;;;;;;;6.00;1.98;;;14.60;99.90;;;;;;5075421;28;20021;-68
2023/10/12 01:47:56;;;;;;;8.95;2.65;;;14.60;99.90;;;;;;5075183;28;20042;-66
2023/10/12 01:50:25;;;;;;;7.40;2.83;;;14.50;99.90;;;;;;5075160;28;20021;-68
2023/10/12 01:52:58;;;;;;;6.82;2.17;;;14.60;99.90;;;;;;5075424;28;20040;-67
2023/10/12 01:55:30;;;;;;;7.93;2.72;;;14.50;99.90;;;;;;5075112;28;20032;-67
2023/10/12 01:58:00;;;;;;;2.97;1.50;;;14.50;99.90;;;;;;5074983;28;20048;-67
2023/10/12 02:00:27;;;;;;;11.90;2.55;;;14.50;99.90;;;;;;5073774;28;20107;-67
2023/10/12 02:03:31;;;;;;;4.80;1.80;;;14.50;99.90;;;;;;5074646;28;20025;-67
2023/10/12 02:05:58;;;;;;;8.57;2.53;;;14.50;99.90;;;;;;5074227;28;20075;-67
2023/10/12 02:08:32;;;;;;;0.35;0.30;;;14.40;99.90;;;;;;5074982;28;20017;-67
2023/10/12 02:13:54;;;;;;;0.63;0.63;;;14.40;99.90;;;;;;5074914;28;20037;-65
2023/10/12 02:16:25;;;;;;;0.20;0.20;;;14.40;99.90;;;;;;5073663;28;20419;-67
2023/10/12 02:18:54;;;;;;;0.85;0.50;;;14.40;99.90;;;;;;5074838;28;20020;-67
2023/10/12 02:21:21;;;;;;;0.80;0.38;;;14.40;99.90;;;;;;5074554;28;20071;-66
2023/10/12 02:26:38;;;;;;;3.97;1.55;;;14.40;99.90;;;;;;5074400;28;20037;-66
2023/10/12 02:31:56;;;;;;;0.20;0.20;;;14.30;99.90;;;;;;5074623;28;20060;-65
2023/10/12 02:34:27;;;;;;;0.20;0.20;;;14.30;99.90;;;;;;5073484;28;20046;-66
2023/10/12 02:37:00;;;;;;;0.65;0.65;;;14.30;99.90;;;;;;5072647;28;20035;-66
2023/10/12 02:39:27;;;;;;;0.10;0.10;;;14.30;99.90;;;;;;5072417;28;20115;-67
2023/10/12 02:42:17;;;;;;;3.80;0.77;;;14.30;99.90;;;;;;5071406;28;20850;-66
2023/10/12 02:47:17;;;;;;;0.40;0.40;;;14.30;99.90;;;;;;5072305;28;20079;-67
2023/10/12 02:49:45;;;;;;;0.32;0.32;;;14.30;99.90;;;;;;5072260;28;20027;-67
2023/10/12 02:52:14;;;;;;;3.63;0.68;;;14.30;99.90;;;;;;5073997;28;20056;-68
2023/10/12 02:54:50;;;;;;;1.58;0.73;;;14.20;99.90;;;;;;5074106;28;20031;-68
2023/10/12 02:57:25;;;;;;;0.50;0.50;;;14.30;99.90;;;;;;5073855;28;20024;-66
2023/10/12 03:02:40;;;;;;;0.20;0.20;;;14.20;99.90;;;;;;5074013;28;20051;-67
2023/10/12 03:05:07;;;;;;;0.93;0.60;;;14.20;99.90;;;;;;5073649;28;20476;-68
2023/10/12 03:07:38;;;;;;;2.20;1.25;;;14.20;99.90;;;;;;5073647;28;20029;-68
2023/10/12 03:10:15;;;;;;;0.60;0.45;;;14.20;99.90;;;;;;5073778;28;20503;-67
2023/10/12 03:12:43;;;;;;;1.45;0.68;;;14.30;99.90;;;;;;5073593;28;20067;-69
2023/10/12 03:15:15;;;;;;;2.63;0.98;;;14.30;99.90;;;;;;5073561;28;20028;-67
2023/10/12 03:17:57;;;;;;;0.60;0.50;;;14.30;99.90;;;;;;5073441;28;20103;-67
2023/10/12 03:20:24;;;;;;;0.30;0.25;;;14.30;99.90;;;;;;5073577;28;20039;-66
2023/10/12 03:22:53;;;;;;;0.40;0.40;;;14.30;99.90;;;;;;5073531;28;20028;-66
2023/10/12 03:25:38;;;;;;;0.10;0.10;;;14.30;99.90;;;;;;5073261;28;20070;-66
2023/10/12 03:28:12;;;;;;;1.85;0.82;;;14.30;99.90;;;;;;5073235;28;20028;-67
2023/10/12 03:30:43;;;;;;;3.10;1.25;;;14.30;99.90;;;;;;5073033;28;20177;-65
2023/10/12 03:33:15;;;;;;;4.85;1.52;;;14.30;99.90;;;;;;5073340;28;20032;-66
2023/10/12 03:35:53;;;;;;;9.18;0.98;;;14.20;99.90;;;;;;5073347;28;20230;-65
2023/10/12 03:38:19;;;;;;;1.48;0.75;;;14.20;99.90;;;;;;5073286;28;20028;-65
2023/10/12 03:43:30;;;;;;;1.45;0.55;;;14.30;99.90;;;;;;5073022;28;20401;-66
2023/10/12 03:46:17;;;;;;;1.00;0.88;;;14.30;99.90;;;;;;5072969;28;20469;-66
2023/10/12 03:49:07;;;;;;;3.60;0.82;;;14.30;99.90;;;;;;5073769;28;20413;-66
2023/10/12 03:51:38;;;;;;;0.10;0.10;;;14.30;99.90;;;;;;5072440;28;20044;-65
2023/10/12 03:54:26;;;;;;;1.35;0.82;;;14.30;99.90;;;;;;5072971;28;20081;-66
2023/10/12 03:56:53;;;;;;;0.90;0.43;;;14.30;99.90;;;;;;5075996;28;20047;-66
2023/10/12 03:59:27;;;;;;;1.33;0.68;;;14.30;99.90;;;;;;5078438;28;20028;-66
2023/10/12 04:01:54;;;;;;;1.02;0.55;;;14.30;99.90;;;;;;5072626;28;20379;-66
2023/10/12 04:04:34;;;;;;;0.22;0.20;;;14.30;99.90;;;;;;5073090;28;20016;-65
2023/10/12 04:09:39;;;;;;;0.40;0.40;;;14.30;99.90;;;;;;5083789;28;20024;-67
2023/10/12 04:12:16;;;;;;;0.40;0.40;;;14.30;99.90;;;;;;5080598;28;20542;-68
2023/10/12 04:14:52;;;;;;;0.85;0.57;;;14.30;99.90;;;;;;5072672;28;20381;-67
2023/10/12 04:20:13;;;;;;;0.20;0.20;;;14.30;99.90;;;;;;5092965;28;20499;-65
2023/10/12 04:23:15;;;;;;;0.73;0.50;;;14.30;99.90;;;;;;5092881;28;20035;-68
2023/10/12 04:27:57;;;;;;;1.60;1.00;;;14.30;99.90;;;;;;5084890;28;20016;-66
2023/10/12 04:30:29;;;;;;;0.73;0.73;;;14.30;99.90;;;;;;5093047;28;20023;-66
2023/10/12 04:33:13;;;;;;;1.27;1.17;;;14.30;99.90;;;;;;5086106;28;20472;-67
2023/10/12 04:43:39;;;;;;;2.97;0.80;;;14.30;99.90;;;;;;5052248;28;20036;-66
2023/10/12 04:48:46;;;;;;;2.65;0.93;;;14.30;99.90;;;;;;5080679;28;20052;-66
2023/10/12 04:51:19;;;;;;;3.20;0.75;;;14.20;99.90;;;;;;5081881;28;20097;-66
2023/10/12 04:53:57;;;;;;;0.13;0.13;;;14.30;99.90;;;;;;5080782;28;20433;-66
2023/10/12 04:56:23;;;;;;;0.20;0.20;;;14.30;99.90;;;;;;5078192;28;20073;-66
2023/10/12 04:58:59;;;;;;;1.10;0.60;;;14.30;99.90;;;;;;5076622;28;20069;-66
2023/10/12 05:01:40;;;;;;;1.52;0.60;;;14.40;99.90;;;;;;5076366;28;20104;-65
2023/10/12 05:04:18;;;;;;;1.30;0.60;;;14.40;99.90;;;;;;5089497;28;20467;-66
2023/10/12 05:06:56;;;;;;;2.20;0.82;;;14.40;99.90;;;;;;5096606;28;20097;-66
2023/10/12 05:09:22;;;;;;;0.52;0.52;;;14.40;99.90;;;;;;5096460;28;20084;-66
2023/10/12 05:11:47;;;;;;;1.27;0.75;;;14.40;99.90;;;;;;5096615;28;20028;-66
2023/10/12 05:14:15;;;;;;;7.68;1.45;;;14.40;99.90;;;;;;5096505;28;20440;-66
2023/10/12 05:16:45;;;;;;;1.38;0.50;;;14.40;99.90;;;;;;5093001;28;20037;-66
2023/10/12 05:19:11;;;;;;;0.68;0.65;;;14.40;99.90;;;;;;5076147;28;20024;-65
2023/10/12 05:21:38;;;;;;;1.30;1.17;;;14.40;99.90;;;;;;5074366;28;20039;-66
2023/10/12 05:24:03;;;;;;;1.55;0.68;;;14.40;99.90;;;;;;5075763;28;20035;-65
2023/10/12 05:26:30;;;;;;;1.50;0.80;;;14.40;99.90;;;;;;5075585;28;20036;-66
2023/10/12 05:29:17;;;;;;;0.17;0.17;;;14.40;99.90;;;;;;5076147;28;20046;-65
2023/10/12 05:31:48;;;;;;;2.13;0.93;;;14.40;99.90;;;;;;5076035;28;20111;-67
2023/10/12 05:34:34;;;;;;;1.65;1.23;;;14.30;99.90;;;;;;5075798;28;20495;-67
2023/10/12 05:37:07;;;;;;;2.13;0.73;;;14.30;99.90;;;;;;5075775;28;20036;-65
2023/10/12 05:39:36;;;;;;;1.63;0.60;;;14.20;99.90;;;;;;5075175;28;20058;-65
2023/10/12 05:42:05;;;;;;;0.38;0.38;;;14.20;99.90;;;;;;5075214;28;20670;-65
2023/10/12 05:44:31;;;;;;;2.13;0.93;;;14.20;99.90;;;;;;5075607;28;20028;-65
2023/10/12 05:47:00;;;;;;;0.50;0.50;;;14.20;99.90;;;;;;5075634;28;20044;-65
2023/10/12 05:49:25;;;;;;;2.38;1.15;;;14.20;99.90;;;;;;5075585;28;20115;-65
2023/10/12 05:51:51;;;;;;;0.85;0.63;;;14.20;99.90;;;;;;5075125;28;20075;-66
2023/10/12 05:54:20;;;;;;;0.60;0.60;;;14.10;99.90;;;;;;5075336;28;20052;-64
2023/10/12 05:56:49;;;;;;;5.20;0.68;;;14.10;99.90;;;;;;5075460;28;20025;-65
2023/10/12 05:59:14;;;;;;;0.28;0.28;;;14.10;99.90;;;;;;5075488;28;20027;-66
2023/10/12 06:01:45;;;;;;;0.20;0.20;;;14.10;99.90;;;;;;5074977;28;20025;-66
2023/10/12 06:04:14;;;;;;;1.90;0.95;;;14.10;99.90;;;;;;5075199;28;20107;-66
2023/10/12 06:06:44;;;;;;;1.55;1.10;;;14.10;99.90;;;;;;5074754;28;20040;-65
2023/10/12 06:09:13;;;;;;;1.45;0.43;;;14.00;99.90;;;;;;5075041;28;20021;-66
2023/10/12 06:11:46;;;;;;;15.57;1.90;;;14.00;99.90;;;;;;5075179;28;20033;-67
2023/10/12 06:14:20;;;;;;;0.10;0.10;;;14.00;99.90;;;;;;5073844;28;20060;-66
2023/10/12 06:16:47;;;;;;;4.22;0.85;;;14.00;99.90;;;;;;5075026;28;20025;-66
2023/10/12 06:19:21;;;;;;;2.08;0.70;;;14.00;99.90;;;;;;5074604;28;20044;-65
2023/10/12 06:21:51;;;;;;;0.20;0.20;;;14.00;99.90;;;;;;5075112;28;20055;-66
2023/10/12 06:24:36;;;;;;;1.42;0.63;;;14.00;99.90;;;;;;5074624;28;20055;-66
2023/10/12 06:30:05;;;;;;;1.45;0.68;;;14.00;99.90;;;;;;5030123;28;20071;-66
2023/10/12 06:32:31;;;;;;;0.30;0.30;;;14.00;99.90;;;;;;5054845;28;20017;-65
2023/10/12 06:40:37;;;;;;;1.20;0.90;;;14.00;99.90;;;;;;5076537;28;20043;-65
2023/10/12 06:43:57;;;;;;;2.95;1.25;;;14.10;99.90;;;;;;5079096;28;20032;-66
2023/10/12 06:45:51;;;;;;;1.17;0.90;;;14.10;99.90;;;;;;5080046;28;20032;-67
2023/10/12 06:51:07;;;;;;;5.30;1.38;;;14.10;99.90;;;;;;5088094;28;20020;-64
2023/10/12 06:53:34;;;;;;;0.80;0.80;;;14.10;99.90;;;;;;5078098;28;20052;-64
2023/10/12 06:56:24;;;;;;;1.85;1.10;;;14.20;99.90;;;;;;5088903;28;20081;-64
2023/10/12 07:04:19;;;;;;;0.80;0.70;;;14.30;99.90;;;;;;5077072;28;20087;-64
2023/10/12 07:07:07;;;;;;;1.60;0.60;;;14.30;99.90;;;;;;5073248;28;20097;-64
2023/10/12 07:09:44;;;;;;;3.25;1.60;;;14.30;99.90;;;;;;5068536;28;20016;-64
2023/10/12 07:12:20;;;;;;;0.45;0.45;;;14.30;99.90;;;;;;5079015;28;20020;-65
2023/10/12 07:14:47;;;;;;;0.73;0.73;;;14.20;99.90;;;;;;5058028;28;20028;-65
2023/10/12 07:17:14;;;;;;;1.67;1.13;;;14.20;99.90;;;;;;5077362;28;20028;-66
2023/10/12 07:19:54;;;;;;;1.17;0.75;;;14.20;99.90;;;;;;5081162;28;20437;-64
2023/10/12 07:22:20;;;;;;;2.13;0.52;;;14.20;99.90;;;;;;5075451;28;20036;-64
2023/10/12 07:24:57;;;;;;;1.30;1.08;;;14.20;99.90;;;;;;5086391;28;20086;-67
2023/10/12 07:27:24;;;;;;;2.20;0.90;;;14.20;99.90;;;;;;5076515;28;20073;-65
2023/10/12 07:30:15;;;;;;;0.88;0.88;;;14.10;99.90;;;;;;5092255;28;20383;-67
2023/10/12 07:32:55;;;;;;;1.00;0.65;;;14.10;99.90;;;;;;5060138;28;20016;-66
2023/10/12 07:35:31;;;;;;;2.08;0.88;;;14.10;99.90;;;;;;5083835;28;20472;-66
2023/10/12 07:38:02;;;;;;;0.98;0.93;;;14.10;99.90;;;;;;5087567;28;20457;-65
2023/10/12 07:40:36;;;;;;;2.75;1.42;;;14.10;99.90;;;;;;5076257;28;20370;-66
2023/10/12 07:43:04;;;;;;;8.20;1.55;;;14.10;99.90;;;;;;5086596;28;20021;-66
2023/10/12 07:45:38;;;;;;;0.30;0.30;;;14.10;99.90;;;;;;5072874;28;20043;-66
2023/10/12 07:48:09;;;;;;;1.17;0.90;;;14.10;99.90;;;;;;5065246;28;20035;-66
2023/10/12 07:50:45;;;;;;;1.35;1.23;;;14.10;99.90;;;;;;5079962;28;20032;-66
2023/10/12 07:53:22;;;;;;;1.67;1.02;;;14.20;99.90;;;;;;5086184;28;20040;-65
2023/10/12 07:55:53;;;;;;;1.75;0.70;;;14.20;99.90;;;;;;5070482;28;20063;-64
2023/10/12 07:58:21;;;;;;;2.03;1.83;;;14.30;99.90;;;;;;5083889;28;20107;-64
2023/10/12 08:00:51;;;;;;;0.40;0.40;;;14.30;99.90;;;;;;5077237;28;20036;-65
2023/10/12 08:03:24;;;;;;;0.60;0.60;;;14.30;99.90;;;;;;5072229;28;20067;-64
2023/10/12 08:05:56;;;;;;;5.00;1.10;;;14.40;99.90;;;;;;5085699;28;20137;-66
2023/10/12 08:08:35;;;;;;;0.63;0.63;;;14.40;99.90;;;;;;5071250;28;20462;-66
2023/10/12 08:13:49;;;;;;;0.28;0.28;;;14.50;99.90;;;;;;5064356;28;20035;-66
2023/10/12 08:16:16;;;;;;;0.30;0.30;;;14.50;99.90;;;;;;5082472;28;20030;-67
2023/10/12 08:24:09;;;;;;;1.33;0.63;;;14.60;99.90;;;;;;5079209;28;20020;-66
2023/10/12 08:32:04;;;;;;;0.80;0.80;;;14.80;99.90;;;;;;5078992;28;20024;-65
2023/10/12 08:39:48;;;;;;;8.60;1.02;;;14.80;99.90;;;;;;5061059;28;20106;-65
2023/10/12 08:44:59;;;;;;;0.85;0.50;;;14.80;99.90;;;;;;5076281;28;20242;-65
2023/10/12 08:50:02;;;;;;;1.42;1.15;;;14.90;99.90;;;;;;5079305;28;20032;-65
2023/10/12 08:52:30;;;;;;;0.70;0.50;;;15.00;99.90;;;;;;5078654;28;20037;-66
2023/10/12 08:58:03;;;;;;;0.57;0.57;;;15.00;99.90;;;;;;5061737;28;20035;-65
2023/10/12 09:03:07;;;;;;;1.38;0.93;;;15.00;99.90;;;;;;5075692;28;20032;-66
2023/10/12 09:05:33;;;;;;;1.20;1.10;;;15.00;99.90;;;;;;5060189;28;20040;-65
2023/10/12 09:13:28;;;;;;;2.55;1.60;;;15.00;99.90;;;;;;5088489;28;20055;-66
2023/10/12 09:15:55;;;;;;;0.45;0.45;;;15.10;99.90;;;;;;5076028;28;20024;-66
2023/10/12 09:18:29;;;;;;;0.50;0.43;;;15.10;99.90;;;;;;5083225;28;20048;-66
2023/10/12 09:28:43;;;;;;;1.45;0.47;;;15.80;99.90;;;;;;5084865;28;20093;-65
2023/10/12 09:31:13;;;;;;;0.65;0.65;;;16.00;99.90;;;;;;5075162;28;20035;-65
2023/10/12 09:34:12;;;;;;;0.10;0.10;;;16.20;99.90;;;;;;5085355;28;20059;-64
2023/10/12 09:36:53;;;;;;;5.38;0.63;;;16.20;99.90;;;;;;5085237;28;20028;-66
2023/10/12 09:39:24;;;;;;;0.52;0.52;;;16.20;99.90;;;;;;5072553;28;20021;-66
2023/10/12 09:41:59;;;;;;;3.83;1.08;;;16.20;99.90;;;;;;5079024;28;20517;-65
2023/10/12 09:44:27;;;;;;;2.20;0.47;;;16.20;99.90;;;;;;5083694;28;20028;-65
2023/10/12 09:46:57;;;;;;;0.52;0.52;;;16.10;99.90;;;;;;5090688;28;20607;-66
2023/10/12 09:49:27;;;;;;;1.75;1.13;;;16.00;99.90;;;;;;5091186;28;20401;-65
2023/10/12 09:51:56;;;;;;;9.90;1.58;;;15.90;99.90;;;;;;5082243;28;20052;-65
2023/10/12 09:54:30;;;;;;;4.18;1.20;;;15.80;99.90;;;;;;5084110;28;20611;-65
2023/10/12 09:57:03;;;;;;;1.27;0.85;;;15.80;99.90;;;;;;5090513;28;20435;-65
2023/10/12 09:59:31;;;;;;;0.60;0.60;;;15.60;99.90;;;;;;5062843;28;20103;-66
2023/10/12 10:02:42;;;;;;;0.45;0.45;;;15.50;99.90;;;;;;5087422;28;20385;-67
2023/10/12 10:04:53;;;;;;;0.32;0.30;;;15.40;99.90;;;;;;5083815;28;20039;-67
2023/10/12 10:07:26;;;;;;;0.57;0.30;;;15.40;99.90;;;;;;5078358;28;20041;-67
2023/10/12 10:09:58;;;;;;;1.48;0.73;;;15.40;99.90;;;;;;5087737;28;20038;-67
2023/10/12 10:12:27;;;;;;;0.30;0.30;;;15.40;99.90;;;;;;5086183;28;20032;-67
2023/10/12 10:14:54;;;;;;;1.75;0.73;;;15.40;99.90;;;;;;5079590;28;20037;-67
2023/10/12 10:17:37;;;;;;;0.43;0.43;;;15.40;99.90;;;;;;5091900;28;20464;-66
2023/10/12 10:20:46;;;;;;;0.85;0.50;;;15.30;99.90;;;;;;5083457;28;20077;-66
2023/10/12 10:22:58;;;;;;;0.43;0.43;;;15.30;99.90;;;;;;5078997;28;20036;-65
2023/10/12 10:25:28;;;;;;;0.50;0.40;;;15.40;99.90;;;;;;5091355;28;20016;-66
2023/10/12 10:27:56;;;;;;;0.73;0.73;;;15.40;99.90;;;;;;5082214;28;20020;-65
2023/10/12 10:30:28;;;;;;;0.55;0.52;;;15.40;99.90;;;;;;5083980;28;20097;-66
2023/10/12 10:33:12;;;;;;;;;;;15.40;99.90;;;;;;5090551;28;20461;-66
2023/10/12 10:35:58;;;;;;;0.25;0.25;;;15.40;99.90;;;;;;5064765;28;19904;-66
2023/10/12 10:38:34;;;;;;;0.10;0.10;;;15.40;99.90;;;;;;5083257;28;20037;-64
2023/10/12 10:41:07;;;;;;;0.60;0.60;;;15.50;99.90;;;;;;5074600;28;20063;-65
2023/10/12 10:43:39;;;;;;;0.45;0.43;;;15.60;99.90;;;;;;5063394;28;20039;-65
2023/10/12 10:46:13;;;;;;;0.25;0.25;;;15.70;99.90;;;;;;5085951;28;20074;-65
2023/10/12 10:48:49;;;;;;;0.55;0.55;;;15.70;99.90;;;;;;5087697;28;20035;-65
2023/10/12 10:51:19;;;;;;;2.75;0.88;;;15.80;99.90;;;;;;5075229;28;20056;-64
2023/10/12 10:53:52;;;;;;;1.17;0.47;;;15.70;99.90;;;;;;5078225;28;20472;-65
2023/10/12 10:56:34;;;;;;;0.30;0.30;;;15.70;99.90;;;;;;5084771;28;20086;-64
2023/10/12 10:59:00;;;;;;;1.40;0.52;;;15.70;99.90;;;;;;5077916;28;20060;-65
2023/10/12 11:01:26;;;;;;;0.30;0.30;;;15.70;99.90;;;;;;5061089;28;20032;-65
2023/10/12 11:03:57;;;;;;;0.25;0.25;;;15.70;99.90;;;;;;5087054;28;20067;-64
2023/10/12 11:06:23;;;;;;;1.17;1.08;;;15.70;99.90;;;;;;5085438;28;20036;-65
2023/10/12 11:09:14;;;;;;;1.05;0.65;;;15.60;99.90;;;;;;5078849;28;20427;-65
2023/10/12 11:11:45;;;;;;;1.85;0.47;;;15.60;99.90;;;;;;5089146;28;20447;-65
2023/10/12 11:14:14;;;;;;;1.40;0.60;;;15.50;99.90;;;;;;5084189;28;20515;-65
2023/10/12 11:16:45;;;;;;;1.45;0.63;;;15.50;99.90;;;;;;5087674;28;20111;-65
2023/10/12 11:19:11;;;;;;;1.48;0.52;;;15.50;99.90;;;;;;5077027;28;20020;-65
2023/10/12 11:21:45;;;;;;;0.40;0.40;;;15.50;99.90;;;;;;5088898;28;20034;-65
2023/10/12 11:24:13;;;;;;;0.30;0.30;;;15.50;99.90;;;;;;5083512;28;20028;-65
2023/10/12 11:27:11;;;;;;;0.22;0.22;;;15.50;99.90;;;;;;5080082;28;20754;-65
2023/10/12 11:29:51;;;;;;;0.65;0.55;;;15.60;99.90;;;;;;5055030;28;20039;-66
2023/10/12 11:32:17;;;;;;;0.40;0.40;;;15.50;99.90;;;;;;5082891;28;20025;-67
2023/10/12 11:34:52;;;;;;;0.80;0.75;;;15.50;99.90;;;;;;5087562;28;20104;-68
2023/10/12 11:37:18;;;;;;;0.77;0.77;;;15.40;99.90;;;;;;5076789;28;20032;-68
2023/10/12 11:39:45;;;;;;;6.28;1.02;;;15.40;99.90;;;;;;5087357;28;20025;-68
2023/10/12 11:42:14;;;;;;;2.30;1.10;;;15.40;99.90;;;;;;5082649;28;20043;-67
2023/10/12 11:44:46;;;;;;;1.27;1.17;;;15.40;99.90;;;;;;5079681;28;20029;-68
2023/10/12 11:47:37;;;;;;;1.00;0.70;;;15.40;99.90;;;;;;5091317;28;20439;-68
2023/10/12 11:50:04;;;;;;;1.37;1.20;;;15.40;99.90;;;;;;5084784;28;20032;-70
2023/10/12 11:52:34;;;;;;;1.30;1.08;;;15.40;99.90;;;;;;5085349;28;20048;-68
2023/10/12 11:55:19;;;;;;;1.65;0.95;;;15.40;99.90;;;;;;5076687;28;20135;-68
2023/10/12 11:57:53;;;;;;;4.72;0.85;;;15.40;99.90;;;;;;5074673;28;20028;-66
2023/10/12 12:00:36;;;;;;;1.05;0.80;;;15.50;99.90;;;;;;5077989;28;20029;-67
2023/10/12 12:03:08;;;;;;;2.17;0.80;;;15.50;99.90;;;;;;5086385;28;20073;-66
2023/10/12 12:05:36;;;;;;;0.82;0.80;;;15.50;99.90;;;;;;5090968;28;20032;-65
2023/10/12 12:08:14;;;;;;;0.43;0.43;;;15.60;99.90;;;;;;5084604;28;20083;-65
2023/10/12 12:10:54;;;;;;;3.47;1.23;;;15.50;99.90;;;;;;5086638;28;20051;-65
2023/10/12 12:13:20;;;;;;;2.78;1.02;;;15.60;99.90;;;;;;5076021;28;20017;-66
2023/10/12 12:15:53;;;;;;;1.40;1.02;;;15.60;99.90;;;;;;5065448;28;20115;-68
2023/10/12 12:18:19;;;;;;;1.45;0.95;;;15.60;99.90;;;;;;5082115;28;20072;-65
2023/10/12 12:20:52;;;;;;;3.42;1.90;;;15.60;99.90;;;;;;5072668;28;20024;-66
2023/10/12 12:23:53;;;;;;;0.30;0.25;;;15.60;99.90;;;;;;5089146;28;20112;-66
2023/10/12 12:26:14;;;;;;;1.65;1.02;;;15.60;99.90;;;;;;5080403;28;20545;-66
2023/10/12 12:28:49;;;;;;;2.28;1.40;;;15.60;99.90;;;;;;5078931;28;20384;-66
2023/10/12 12:31:15;;;;;;;0.85;0.82;;;15.60;99.90;;;;;;5085664;28;20020;-67
2023/10/12 12:33:44;;;;;;;1.52;0.98;;;15.60;99.90;;;;;;5087088;28;20027;-69
2023/10/12 12:36:21;;;;;;;0.85;0.50;;;15.60;99.90;;;;;;5081704;28;20024;-67
2023/10/12 12:39:10;;;;;;;2.15;1.30;;;15.50;99.90;;;;;;5093126;28;20093;-69
2023/10/12 12:41:36;;;;;;;0.82;0.82;;;15.50;99.90;;;;;;5062204;28;20432;-69
2023/10/12 12:44:02;;;;;;;2.70;1.77;;;15.50;99.90;;;;;;5084253;28;20032;-67
2023/10/12 12:46:30;;;;;;;1.42;1.33;;;15.50;99.90;;;;;;5084351;28;20503;-68
2023/10/12 12:48:56;;;;;;;6.47;1.17;;;15.50;99.90;;;;;;5078450;28;20021;-66
2023/10/12 12:51:22;;;;;;;1.10;1.00;;;15.50;99.90;;;;;;5081593;28;20044;-67
2023/10/12 12:53:50;;;;;;;0.80;0.80;;;15.50;99.90;;;;;;5081453;28;20077;-66
2023/10/12 12:56:17;;;;;;;1.70;1.13;;;15.50;99.90;;;;;;5081530;28;20051;-67
2023/10/12 12:58:49;;;;;;;2.08;0.80;;;15.50;99.90;;;;;;5085986;28;20069;-66
2023/10/12 13:01:26;;;;;;;2.88;1.75;;;15.50;99.90;;;;;;5075667;28;20054;-68
2023/10/12 13:03:58;;;;;;;1.27;0.57;;;15.50;99.90;;;;;;5085100;28;20365;-65
2023/10/12 13:06:24;;;;;;;2.05;1.17;;;15.50;99.90;;;;;;5076139;28;20048;-67
2023/10/12 13:08:49;;;;;;;0.82;0.82;;;15.50;99.90;;;;;;5087341;28;20524;-66
2023/10/12 13:11:20;;;;;;;2.08;1.40;;;15.50;99.90;;;;;;5089549;28;20103;-67
2023/10/12 13:13:47;;;;;;;1.23;1.00;;;15.60;99.90;;;;;;5076572;28;20056;-65
2023/10/12 13:16:13;;;;;;;1.38;0.80;;;15.60;99.90;;;;;;5082297;28;20032;-67
2023/10/12 13:18:48;;;;;;;1.85;1.75;;;15.60;99.90;;;;;;5089171;28;20031;-68
2023/10/12 13:21:17;;;;;;;1.17;1.02;;;15.80;99.90;;;;;;5079511;28;20033;-67
2023/10/12 13:23:43;;;;;;;2.85;1.38;;;15.90;99.90;;;;;;5090305;28;20027;-69
2023/10/12 13:26:12;;;;;;;2.38;1.05;;;16.20;99.90;;;;;;5085366;28;20042;-68
2023/10/12 13:28:40;;;;;;;0.38;0.38;;;16.20;99.90;;;;;;5082455;28;20104;-68
2023/10/12 13:31:06;;;;;;;1.55;1.13;;;16.20;99.90;;;;;;5092471;28;20032;-67
2023/10/12 13:33:32;;;;;;;0.95;0.77;;;16.10;99.90;;;;;;5080101;28;20063;-65
2023/10/12 13:35:58;;;;;;;1.85;0.75;;;16.10;99.90;;;;;;5086853;28;20068;-66
2023/10/12 13:38:29;;;;;;;2.13;1.10;;;16.10;99.90;;;;;;5087001;28;20028;-67
2023/10/12 13:40:54;;;;;;;2.33;1.40;;;16.10;99.90;;;;;;5079587;28;20382;-66
2023/10/12 13:43:26;;;;;;;1.48;1.38;;;16.00;99.90;;;;;;5092117;28;20099;-66
2023/10/12 13:45:54;;;;;;;0.60;0.45;;;16.00;99.90;;;;;;5082650;28;20028;-65
2023/10/12 13:48:22;;;;;;;1.05;0.98;;;15.90;99.90;;;;;;5082793;28;20497;-66
2023/10/12 13:50:52;;;;;;;0.77;0.77;;;15.90;99.90;;;;;;5081888;28;20044;-65
2023/10/12 13:53:19;;;;;;;1.17;0.85;;;15.90;99.90;;;;;;5092285;28;20035;-66
2023/10/12 13:55:47;;;;;;;0.70;0.70;;;15.90;99.90;;;;;;5081454;28;20020;-66
2023/10/12 13:58:13;;;;;;;1.27;1.17;;;15.90;99.90;;;;;;5085573;28;20035;-65
2023/10/12 14:00:39;;;;;;;2.25;1.30;;;15.90;99.90;;;;;;5088943;28;20054;-66
2023/10/12 14:03:10;;;;;;;1.85;1.45;;;15.90;99.90;;;;;;5078538;28;20052;-66
2023/10/12 14:05:40;;;;;;;1.65;1.25;;;15.90;99.90;;;;;;5091263;28;20465;-66
2023/10/12 14:08:12;;;;;;;2.25;1.00;;;15.90;99.90;;;;;;5085855;28;20032;-65
2023/10/12 14:10:42;;;;;;;2.53;1.90;;;15.90;99.90;;;;;;5088745;28;20107;-67
2023/10/12 14:13:08;;;;;;;2.40;0.80;;;16.00;99.90;;;;;;5078315;28;20112;-66
2023/10/12 14:15:35;;;;;;;0.70;0.70;;;16.00;99.90;;;;;;5090780;28;20469;-66
2023/10/12 14:18:02;;;;;;;4.65;1.77;;;16.00;99.90;;;;;;5083364;28;20111;-66
2023/10/12 14:20:28;;;;;;;2.92;1.85;;;16.00;99.90;;;;;;5082519;28;20111;-65
2023/10/12 14:22:58;;;;;;;3.25;2.70;;;16.10;99.90;;;;;;5090624;28;20039;-67
2023/10/12 14:25:28;;;;;;;1.75;1.10;;;16.10;99.90;;;;;;5078011;28;20089;-68
2023/10/12 14:28:00;;;;;;;2.40;1.80;;;16.00;99.90;;;;;;5087378;28;20036;-68
2023/10/12 14:30:29;;;;;;;2.05;1.13;;;16.00;99.90;;;;;;5086458;28;20091;-67
2023/10/12 14:33:06;;;;;;;1.48;1.33;;;16.00;99.90;;;;;;5078456;28;20133;-68
2023/10/12 14:35:39;;;;;;;2.95;2.28;;;16.00;99.90;;;;;;5063335;28;20052;-67
2023/10/12 14:38:11;;;;;;;2.30;1.38;;;15.90;99.90;;;;;;5086188;28;20475;-68
2023/10/12 14:40:40;;;;;;;1.00;1.00;;;15.90;99.90;;;;;;5073213;28;20028;-66
2023/10/12 14:43:10;;;;;;;2.65;1.70;;;15.90;99.90;;;;;;5073754;28;20043;-65
2023/10/12 14:45:37;;;;;;;1.17;0.88;;;16.00;99.90;;;;;;5083203;28;20016;-66
2023/10/12 14:48:09;;;;;;;1.67;1.58;;;16.10;99.90;;;;;;5085901;28;20024;-65
2023/10/12 14:50:37;;;;;;;0.88;0.88;;;16.10;99.90;;;;;;5087360;28;20500;-65